sensor_id;sensor_type;location;lat;lon;timestamp;pressure;altitude;pressure_sealevel;temperature;humidity
37298;BME280;30517;51.932;4.278;2023-08-31T00:02:18;100879.69;;;17.01;54.62
37298;BME280;30517;51.932;4.278;2023-08-31T00:04:59;100884.81;;;17.09;53.98
37298;BME280;30517;51.932;4.278;2023-08-31T00:07:40;100904.53;;;17.03;54.87
37298;BME280;30517;51.932;4.278;2023-08-31T00:10:21;100881.28;;;16.77;55.25
37298;BME280;30517;51.932;4.278;2023-08-31T00:13:04;100892.47;;;16.90;55.22
37298;BME280;30517;51.932;4.278;2023-08-31T00:15:46;100869.34;;;16.90;55.02
37298;BME280;30517;51.932;4.278;2023-08-31T00:18:27;100868.81;;;17.09;54.69
37298;BME280;30517;51.932;4.278;2023-08-31T00:21:08;100860.53;;;17.19;54.10
37298;BME280;30517;51.932;4.278;2023-08-31T00:23:49;100855.50;;;17.09;54.23
37298;BME280;30517;51.932;4.278;2023-08-31T00:26:30;100802.63;;;16.95;53.90
37298;BME280;30517;51.932;4.278;2023-08-31T00:29:11;100836.81;;;17.10;54.24
37298;BME280;30517;51.932;4.278;2023-08-31T00:31:54;100833.38;;;17.07;54.20
37298;BME280;30517;51.932;4.278;2023-08-31T00:34:35;100854.31;;;17.19;54.10
37298;BME280;30517;51.932;4.278;2023-08-31T00:37:16;100844.84;;;17.09;54.28
37298;BME280;30517;51.932;4.278;2023-08-31T00:39:57;100807.34;;;16.85;54.16
37298;BME280;30517;51.932;4.278;2023-08-31T00:42:37;100761.91;;;16.58;54.48
37298;BME280;30517;51.932;4.278;2023-08-31T00:45:18;100840.31;;;17.12;53.86
37298;BME280;30517;51.932;4.278;2023-08-31T00:47:59;100836.72;;;17.13;53.71
37298;BME280;30517;51.932;4.278;2023-08-31T00:50:40;100840.31;;;17.12;53.59
37298;BME280;30517;51.932;4.278;2023-08-31T00:53:21;100860.63;;;17.16;53.87
37298;BME280;30517;51.932;4.278;2023-08-31T00:56:03;100845.50;;;17.17;53.70
37298;BME280;30517;51.932;4.278;2023-08-31T00:58:44;100837.56;;;17.15;53.74
37298;BME280;30517;51.932;4.278;2023-08-31T01:01:49;100832.78;;;17.27;53.34
37298;BME280;30517;51.932;4.278;2023-08-31T01:04:41;100843.34;;;17.30;53.23
37298;BME280;30517;51.932;4.278;2023-08-31T01:07:50;100844.53;;;17.19;53.86
37298;BME280;30517;51.932;4.278;2023-08-31T01:10:48;100846.53;;;17.13;53.82
37298;BME280;30517;51.932;4.278;2023-08-31T01:13:37;100808.69;;;17.00;53.82
37298;BME280;30517;51.932;4.278;2023-08-31T01:16:19;100798.47;;;16.85;53.56
37298;BME280;30517;51.932;4.278;2023-08-31T01:19:17;100821.38;;;16.90;53.82
37298;BME280;30517;51.932;4.278;2023-08-31T01:22:11;100838.72;;;17.07;53.66
37298;BME280;30517;51.932;4.278;2023-08-31T01:24:54;100841.72;;;16.94;54.19
37298;BME280;30517;51.932;4.278;2023-08-31T01:27:36;100845.06;;;17.01;54.00
37298;BME280;30517;51.932;4.278;2023-08-31T01:30:17;100834.78;;;16.89;54.06
37298;BME280;30517;51.932;4.278;2023-08-31T01:32:58;100830.41;;;16.86;53.96
37298;BME280;30517;51.932;4.278;2023-08-31T01:35:49;100851.41;;;16.97;54.21
37298;BME280;30517;51.932;4.278;2023-08-31T01:38:35;100819.97;;;16.78;54.18
37298;BME280;30517;51.932;4.278;2023-08-31T01:41:19;100828.69;;;16.84;54.08
37298;BME280;30517;51.932;4.278;2023-08-31T01:44:02;100849.50;;;17.02;53.64
37298;BME280;30517;51.932;4.278;2023-08-31T01:46:46;100841.75;;;16.93;53.72
37298;BME280;30517;51.932;4.278;2023-08-31T01:49:26;100825.25;;;16.80;54.23
37298;BME280;30517;51.932;4.278;2023-08-31T01:52:07;100842.94;;;16.83;54.27
37298;BME280;30517;51.932;4.278;2023-08-31T01:54:48;100805.56;;;16.53;54.51
37298;BME280;30517;51.932;4.278;2023-08-31T01:57:29;100842.00;;;16.85;54.10
37298;BME280;30517;51.932;4.278;2023-08-31T02:00:11;100843.75;;;16.85;54.14
37298;BME280;30517;51.932;4.278;2023-08-31T02:02:52;100847.44;;;16.80;54.50
37298;BME280;30517;51.932;4.278;2023-08-31T02:05:33;100788.25;;;16.36;54.72
37298;BME280;30517;51.932;4.278;2023-08-31T02:08:14;100853.81;;;16.73;54.34
37298;BME280;30517;51.932;4.278;2023-08-31T02:10:57;100832.75;;;16.64;54.38
37298;BME280;30517;51.932;4.278;2023-08-31T02:13:38;100856.28;;;16.81;53.76
37298;BME280;30517;51.932;4.278;2023-08-31T02:16:19;100838.09;;;16.64;54.40
37298;BME280;30517;51.932;4.278;2023-08-31T02:19:00;100777.19;;;16.19;54.43
37298;BME280;30517;51.932;4.278;2023-08-31T02:21:40;100849.25;;;16.78;54.26
37298;BME280;30517;51.932;4.278;2023-08-31T02:24:21;100849.25;;;16.78;53.77
37298;BME280;30517;51.932;4.278;2023-08-31T02:27:04;100848.38;;;16.76;54.25
37298;BME280;30517;51.932;4.278;2023-08-31T02:29:45;100846.75;;;16.72;54.33
37298;BME280;30517;51.932;4.278;2023-08-31T02:32:26;100778.50;;;16.35;54.02
37298;BME280;30517;51.932;4.278;2023-08-31T02:35:07;100849.41;;;16.72;54.03
37298;BME280;30517;51.932;4.278;2023-08-31T02:37:48;100818.94;;;16.50;54.39
37298;BME280;30517;51.932;4.278;2023-08-31T02:40:28;100831.19;;;16.57;54.31
37298;BME280;30517;51.932;4.278;2023-08-31T02:43:09;100845.28;;;16.60;54.18
37298;BME280;30517;51.932;4.278;2023-08-31T02:45:58;100823.56;;;16.43;54.47
37298;BME280;30517;51.932;4.278;2023-08-31T02:48:39;100851.78;;;16.50;54.82
37298;BME280;30517;51.932;4.278;2023-08-31T02:51:19;100769.91;;;15.91;54.82
37298;BME280;30517;51.932;4.278;2023-08-31T02:54:00;100850.56;;;16.62;54.02
37298;BME280;30517;51.932;4.278;2023-08-31T02:56:41;100803.50;;;16.30;54.66
37298;BME280;30517;51.932;4.278;2023-08-31T02:59:22;100830.78;;;16.40;54.08
37298;BME280;30517;51.932;4.278;2023-08-31T03:02:04;100857.97;;;16.51;54.23
37298;BME280;30517;51.932;4.278;2023-08-31T03:04:45;100823.97;;;16.28;54.00
37298;BME280;30517;51.932;4.278;2023-08-31T03:07:26;100852.66;;;16.51;54.24
37298;BME280;30517;51.932;4.278;2023-08-31T03:10:07;100827.34;;;16.34;54.48
37298;BME280;30517;51.932;4.278;2023-08-31T03:12:48;100845.66;;;16.47;54.55
37298;BME280;30517;51.932;4.278;2023-08-31T03:15:29;100793.63;;;16.01;54.64
37298;BME280;30517;51.932;4.278;2023-08-31T03:18:10;100838.97;;;16.30;54.57
37298;BME280;30517;51.932;4.278;2023-08-31T03:20:51;100852.00;;;16.41;54.38
37298;BME280;30517;51.932;4.278;2023-08-31T03:23:32;100838.91;;;16.33;54.84
37298;BME280;30517;51.932;4.278;2023-08-31T03:26:12;100810.81;;;16.22;54.68
37298;BME280;30517;51.932;4.278;2023-08-31T03:28:53;100845.91;;;16.37;54.63
37298;BME280;30517;51.932;4.278;2023-08-31T03:31:34;100851.13;;;16.42;54.60
37298;BME280;30517;51.932;4.278;2023-08-31T03:34:15;100795.09;;;16.12;54.23
37298;BME280;30517;51.932;4.278;2023-08-31T03:36:56;100844.22;;;16.33;54.52
37298;BME280;30517;51.932;4.278;2023-08-31T03:39:37;100855.59;;;16.40;54.67
37298;BME280;30517;51.932;4.278;2023-08-31T03:42:20;100849.75;;;16.26;54.59
37298;BME280;30517;51.932;4.278;2023-08-31T03:45:01;100860.88;;;16.42;54.34
37298;BME280;30517;51.932;4.278;2023-08-31T03:47:43;100856.47;;;16.41;54.22
37298;BME280;30517;51.932;4.278;2023-08-31T03:50:24;100853.97;;;16.34;54.27
37298;BME280;30517;51.932;4.278;2023-08-31T03:53:05;100857.47;;;16.36;54.87
37298;BME280;30517;51.932;4.278;2023-08-31T03:55:46;100833.31;;;16.10;56.09
37298;BME280;30517;51.932;4.278;2023-08-31T03:58:27;100853.25;;;16.28;55.31
37298;BME280;30517;51.932;4.278;2023-08-31T04:01:08;100845.59;;;16.15;55.39
37298;BME280;30517;51.932;4.278;2023-08-31T04:03:50;100860.63;;;16.17;55.27
37298;BME280;30517;51.932;4.278;2023-08-31T04:06:30;100816.25;;;15.83;55.32
37298;BME280;30517;51.932;4.278;2023-08-31T04:09:11;100842.31;;;16.04;55.43
37298;BME280;30517;51.932;4.278;2023-08-31T04:11:52;100869.41;;;16.20;54.75
37298;BME280;30517;51.932;4.278;2023-08-31T04:14:33;100873.72;;;16.26;54.59
37298;BME280;30517;51.932;4.278;2023-08-31T04:17:13;100876.50;;;16.21;54.98
37298;BME280;30517;51.932;4.278;2023-08-31T04:19:54;100883.25;;;16.34;54.46
37298;BME280;30517;51.932;4.278;2023-08-31T04:22:35;100851.59;;;16.24;54.66
37298;BME280;30517;51.932;4.278;2023-08-31T04:25:16;100879.06;;;16.24;54.90
37298;BME280;30517;51.932;4.278;2023-08-31T04:27:57;100853.78;;;16.06;54.74
37298;BME280;30517;51.932;4.278;2023-08-31T04:30:39;100850.50;;;15.95;55.09
37298;BME280;30517;51.932;4.278;2023-08-31T04:33:20;100859.31;;;15.99;54.62
37298;BME280;30517;51.932;4.278;2023-08-31T04:36:01;100885.16;;;16.29;54.42
37298;BME280;30517;51.932;4.278;2023-08-31T04:38:41;100881.66;;;16.27;54.65
37298;BME280;30517;51.932;4.278;2023-08-31T04:41:22;100886.44;;;16.13;54.60
37298;BME280;30517;51.932;4.278;2023-08-31T04:44:03;100886.59;;;16.07;55.07
37298;BME280;30517;51.932;4.278;2023-08-31T04:46:44;100854.69;;;16.05;54.24
37298;BME280;30517;51.932;4.278;2023-08-31T04:49:25;100861.91;;;16.02;54.86
37298;BME280;30517;51.932;4.278;2023-08-31T04:52:06;100878.53;;;16.10;54.62
37298;BME280;30517;51.932;4.278;2023-08-31T04:54:47;100897.94;;;16.15;54.87
37298;BME280;30517;51.932;4.278;2023-08-31T04:57:28;100906.78;;;16.15;54.71
37298;BME280;30517;51.932;4.278;2023-08-31T05:00:09;100855.66;;;16.03;54.48
37298;BME280;30517;51.932;4.278;2023-08-31T05:02:52;100899.84;;;16.10;55.05
37298;BME280;30517;51.932;4.278;2023-08-31T05:05:33;100909.53;;;16.12;54.90
37298;BME280;30517;51.932;4.278;2023-08-31T05:08:14;100898.75;;;16.17;54.48
37298;BME280;30517;51.932;4.278;2023-08-31T05:10:55;100895.72;;;15.97;54.94
37298;BME280;30517;51.932;4.278;2023-08-31T05:13:36;100897.75;;;15.85;54.77
37298;BME280;30517;51.932;4.278;2023-08-31T05:16:17;100888.34;;;16.08;54.68
37298;BME280;30517;51.932;4.278;2023-08-31T05:18:58;100923.66;;;16.14;54.98
37298;BME280;30517;51.932;4.278;2023-08-31T05:21:39;100920.28;;;16.08;54.93
37298;BME280;30517;51.932;4.278;2023-08-31T05:24:20;100935.22;;;16.13;54.96
37298;BME280;30517;51.932;4.278;2023-08-31T05:27:00;100930.06;;;16.06;55.29
37298;BME280;30517;51.932;4.278;2023-08-31T05:29:42;100913.50;;;15.93;55.22
37298;BME280;30517;51.932;4.278;2023-08-31T05:32:23;100938.91;;;16.08;55.09
37298;BME280;30517;51.932;4.278;2023-08-31T05:35:04;100936.25;;;16.06;55.32
37298;BME280;30517;51.932;4.278;2023-08-31T05:37:45;100934.78;;;15.95;55.06
37298;BME280;30517;51.932;4.278;2023-08-31T05:40:26;100929.53;;;15.91;55.37
37298;BME280;30517;51.932;4.278;2023-08-31T05:43:10;100851.59;;;15.47;54.94
37298;BME280;30517;51.932;4.278;2023-08-31T05:45:50;100939.13;;;15.99;55.07
37298;BME280;30517;51.932;4.278;2023-08-31T05:48:31;100937.25;;;16.02;55.22
37298;BME280;30517;51.932;4.278;2023-08-31T05:51:12;100942.34;;;16.13;55.10
37298;BME280;30517;51.932;4.278;2023-08-31T05:53:53;100917.06;;;15.93;55.01
37298;BME280;30517;51.932;4.278;2023-08-31T05:56:34;100949.69;;;16.02;55.36
37298;BME280;30517;51.932;4.278;2023-08-31T05:59:14;100924.97;;;15.97;54.68
37298;BME280;30517;51.932;4.278;2023-08-31T06:01:55;100958.28;;;16.13;54.76
37298;BME280;30517;51.932;4.278;2023-08-31T06:04:36;100953.16;;;16.05;54.81
37298;BME280;30517;51.932;4.278;2023-08-31T06:07:17;100965.66;;;16.02;55.37
37298;BME280;30517;51.932;4.278;2023-08-31T06:09:58;100932.25;;;15.88;54.79
37298;BME280;30517;51.932;4.278;2023-08-31T06:12:39;100940.47;;;15.78;55.57
37298;BME280;30517;51.932;4.278;2023-08-31T06:15:20;100933.59;;;15.69;57.63
37298;BME280;30517;51.932;4.278;2023-08-31T06:18:01;100958.19;;;15.79;57.63
37298;BME280;30517;51.932;4.278;2023-08-31T06:20:41;100934.44;;;15.68;57.88
37298;BME280;30517;51.932;4.278;2023-08-31T06:23:22;100921.44;;;15.56;57.84
37298;BME280;30517;51.932;4.278;2023-08-31T06:26:03;100942.38;;;15.71;58.28
37298;BME280;30517;51.932;4.278;2023-08-31T06:28:44;100918.78;;;15.56;58.74
37298;BME280;30517;51.932;4.278;2023-08-31T06:31:24;100972.94;;;15.93;58.43
37298;BME280;30517;51.932;4.278;2023-08-31T06:34:05;100974.84;;;15.87;58.51
37298;BME280;30517;51.932;4.278;2023-08-31T06:36:46;100945.03;;;15.73;58.59
37298;BME280;30517;51.932;4.278;2023-08-31T06:39:27;100967.88;;;15.81;58.72
37298;BME280;30517;51.932;4.278;2023-08-31T06:42:07;100969.59;;;15.84;58.51
37298;BME280;30517;51.932;4.278;2023-08-31T06:44:48;100976.38;;;15.99;58.79
37298;BME280;30517;51.932;4.278;2023-08-31T06:47:29;100981.78;;;15.94;58.63
37298;BME280;30517;51.932;4.278;2023-08-31T06:50:10;100978.84;;;16.06;57.97
37298;BME280;30517;51.932;4.278;2023-08-31T06:52:54;100944.22;;;15.66;58.43
37298;BME280;30517;51.932;4.278;2023-08-31T06:55:35;100952.06;;;15.74;58.72
37298;BME280;30517;51.932;4.278;2023-08-31T06:58:15;101000.66;;;16.22;57.72
37298;BME280;30517;51.932;4.278;2023-08-31T07:00:56;100978.09;;;16.00;57.38
37298;BME280;30517;51.932;4.278;2023-08-31T07:03:37;100964.09;;;15.91;57.78
37298;BME280;30517;51.932;4.278;2023-08-31T07:06:18;100994.00;;;16.03;58.17
37298;BME280;30517;51.932;4.278;2023-08-31T07:08:58;100992.44;;;15.92;58.34
37298;BME280;30517;51.932;4.278;2023-08-31T07:11:39;100982.06;;;16.21;58.78
37298;BME280;30517;51.932;4.278;2023-08-31T07:14:22;100997.22;;;16.17;58.43
37298;BME280;30517;51.932;4.278;2023-08-31T07:17:03;100998.34;;;16.07;58.18
37298;BME280;30517;51.932;4.278;2023-08-31T07:19:44;100985.06;;;16.07;57.75
37298;BME280;30517;51.932;4.278;2023-08-31T07:22:25;101000.66;;;16.22;57.50
37298;BME280;30517;51.932;4.278;2023-08-31T07:25:06;101008.75;;;16.55;57.46
37298;BME280;30517;51.932;4.278;2023-08-31T07:27:47;101009.00;;;16.44;56.65
37298;BME280;30517;51.932;4.278;2023-08-31T07:30:28;100987.47;;;16.18;57.68
37298;BME280;30517;51.932;4.278;2023-08-31T07:33:10;101020.72;;;16.37;58.45
37298;BME280;30517;51.932;4.278;2023-08-31T07:35:50;101000.53;;;16.28;58.28
37298;BME280;30517;51.932;4.278;2023-08-31T07:38:31;101013.75;;;16.31;58.27
37298;BME280;30517;51.932;4.278;2023-08-31T07:41:13;101012.94;;;16.28;58.18
37298;BME280;30517;51.932;4.278;2023-08-31T07:43:53;101002.38;;;16.25;57.96
37298;BME280;30517;51.932;4.278;2023-08-31T07:46:35;101007.78;;;16.20;57.90
37298;BME280;30517;51.932;4.278;2023-08-31T07:49:16;100935.22;;;15.75;58.77
37298;BME280;30517;51.932;4.278;2023-08-31T07:51:57;101013.16;;;16.19;57.92
37298;BME280;30517;51.932;4.278;2023-08-31T07:54:38;101025.91;;;16.42;57.71
37298;BME280;30517;51.932;4.278;2023-08-31T07:57:19;101010.16;;;16.34;57.70
37298;BME280;30517;51.932;4.278;2023-08-31T08:00:00;101030.50;;;16.36;57.97
37298;BME280;30517;51.932;4.278;2023-08-31T08:02:41;101023.72;;;16.23;58.12
37298;BME280;30517;51.932;4.278;2023-08-31T08:05:22;101030.38;;;16.41;57.90
37298;BME280;30517;51.932;4.278;2023-08-31T08:08:03;101043.44;;;16.52;57.47
37298;BME280;30517;51.932;4.278;2023-08-31T08:10:44;101050.66;;;16.47;57.84
37298;BME280;30517;51.932;4.278;2023-08-31T08:13:26;101042.59;;;16.50;57.63
37298;BME280;30517;51.932;4.278;2023-08-31T08:16:07;101037.41;;;16.44;57.34
37298;BME280;30517;51.932;4.278;2023-08-31T08:18:49;101022.28;;;16.47;57.47
37298;BME280;30517;51.932;4.278;2023-08-31T08:21:30;101026.56;;;16.53;57.78
37298;BME280;30517;51.932;4.278;2023-08-31T08:24:11;100986.44;;;16.23;57.78
37298;BME280;30517;51.932;4.278;2023-08-31T08:26:52;101034.69;;;16.47;57.38
37298;BME280;30517;51.932;4.278;2023-08-31T08:29:33;101044.47;;;16.46;56.52
37298;BME280;30517;51.932;4.278;2023-08-31T08:32:14;101062.78;;;16.60;56.75
37298;BME280;30517;51.932;4.278;2023-08-31T08:34:54;101027.84;;;16.36;56.78
37298;BME280;30517;51.932;4.278;2023-08-31T08:37:35;101001.59;;;16.20;56.76
37298;BME280;30517;51.932;4.278;2023-08-31T08:40:16;101005.53;;;16.42;56.76
37298;BME280;30517;51.932;4.278;2023-08-31T08:43:00;101043.16;;;16.64;56.16
37298;BME280;30517;51.932;4.278;2023-08-31T08:45:43;101060.03;;;16.63;56.18
37298;BME280;30517;51.932;4.278;2023-08-31T08:48:27;101070.34;;;16.78;56.04
37298;BME280;30517;51.932;4.278;2023-08-31T08:51:09;101081.88;;;16.79;56.59
37298;BME280;30517;51.932;4.278;2023-08-31T08:53:51;101097.91;;;16.77;56.95
37298;BME280;30517;51.932;4.278;2023-08-31T08:56:33;101056.00;;;16.84;56.33
37298;BME280;30517;51.932;4.278;2023-08-31T08:59:14;101075.69;;;16.78;56.43
37298;BME280;30517;51.932;4.278;2023-08-31T09:01:55;101093.13;;;16.92;56.28
37298;BME280;30517;51.932;4.278;2023-08-31T09:04:36;101059.69;;;16.78;56.13
37298;BME280;30517;51.932;4.278;2023-08-31T09:07:21;101076.22;;;16.93;55.73
37298;BME280;30517;51.932;4.278;2023-08-31T09:10:03;101089.50;;;16.96;56.57
37298;BME280;30517;51.932;4.278;2023-08-31T09:12:44;101082.72;;;17.17;56.00
37298;BME280;30517;51.932;4.278;2023-08-31T09:15:25;101068.78;;;17.06;56.28
37298;BME280;30517;51.932;4.278;2023-08-31T09:18:06;101084.53;;;17.49;56.51
37298;BME280;30517;51.932;4.278;2023-08-31T09:20:47;101102.50;;;17.42;56.27
37298;BME280;30517;51.932;4.278;2023-08-31T09:23:28;101081.66;;;17.24;56.08
37298;BME280;30517;51.932;4.278;2023-08-31T09:26:09;101090.97;;;17.42;55.09
37298;BME280;30517;51.932;4.278;2023-08-31T09:28:52;101082.34;;;17.31;55.50
37298;BME280;30517;51.932;4.278;2023-08-31T09:31:32;101083.47;;;17.22;54.32
37298;BME280;30517;51.932;4.278;2023-08-31T09:34:17;101094.72;;;17.33;54.84
37298;BME280;30517;51.932;4.278;2023-08-31T09:37:04;101076.44;;;17.19;54.15
37298;BME280;30517;51.932;4.278;2023-08-31T09:39:45;101091.84;;;17.42;53.98
37298;BME280;30517;51.932;4.278;2023-08-31T09:42:38;101095.06;;;17.55;53.95
37298;BME280;30517;51.932;4.278;2023-08-31T09:45:26;101066.22;;;17.37;53.75
37298;BME280;30517;51.932;4.278;2023-08-31T09:48:10;101098.88;;;17.45;53.38
37298;BME280;30517;51.932;4.278;2023-08-31T09:50:52;101104.34;;;17.39;53.61
37298;BME280;30517;51.932;4.278;2023-08-31T09:53:35;101041.19;;;17.08;52.61
37298;BME280;30517;51.932;4.278;2023-08-31T09:56:18;101099.63;;;17.50;52.18
37298;BME280;30517;51.932;4.278;2023-08-31T09:59:01;101095.06;;;17.55;51.75
37298;BME280;30517;51.932;4.278;2023-08-31T10:01:45;101103.72;;;17.63;52.93
37298;BME280;30517;51.932;4.278;2023-08-31T10:04:26;101107.19;;;17.65;52.98
37298;BME280;30517;51.932;4.278;2023-08-31T10:07:11;101110.03;;;17.61;52.81
37298;BME280;30517;51.932;4.278;2023-08-31T10:09:53;101107.13;;;17.68;52.21
37298;BME280;30517;51.932;4.278;2023-08-31T10:12:36;101114.03;;;17.76;52.08
37298;BME280;30517;51.932;4.278;2023-08-31T10:15:21;101107.75;;;17.78;52.12
37298;BME280;30517;51.932;4.278;2023-08-31T10:18:04;101076.38;;;17.55;52.18
37298;BME280;30517;51.932;4.278;2023-08-31T10:20:45;101106.78;;;17.82;51.79
37298;BME280;30517;51.932;4.278;2023-08-31T10:23:27;101104.22;;;17.78;50.67
37298;BME280;30517;51.932;4.278;2023-08-31T10:26:08;101110.13;;;17.90;51.07
37298;BME280;30517;51.932;4.278;2023-08-31T10:28:49;101120.34;;;17.73;50.36
37298;BME280;30517;51.932;4.278;2023-08-31T10:31:32;101111.88;;;17.90;50.25
37298;BME280;30517;51.932;4.278;2023-08-31T10:34:13;101109.47;;;17.82;50.04
37298;BME280;30517;51.932;4.278;2023-08-31T10:36:55;101106.50;;;17.93;50.20
37298;BME280;30517;51.932;4.278;2023-08-31T10:39:37;101111.84;;;17.91;50.68
37298;BME280;30517;51.932;4.278;2023-08-31T10:42:23;101109.81;;;18.01;50.58
37298;BME280;30517;51.932;4.278;2023-08-31T10:45:07;101092.50;;;17.85;50.80
37298;BME280;30517;51.932;4.278;2023-08-31T10:47:49;101091.47;;;17.89;50.11
37298;BME280;30517;51.932;4.278;2023-08-31T10:50:40;101117.72;;;18.04;49.88
37298;BME280;30517;51.932;4.278;2023-08-31T10:53:28;101112.22;;;18.09;50.05
37298;BME280;30517;51.932;4.278;2023-08-31T10:56:09;101104.09;;;18.13;50.74
37298;BME280;30517;51.932;4.278;2023-08-31T10:58:58;101117.44;;;18.43;50.75
37298;BME280;30517;51.932;4.278;2023-08-31T11:01:55;101118.41;;;18.41;50.19
37298;BME280;30517;51.932;4.278;2023-08-31T11:05:06;101111.16;;;18.44;50.35
37298;BME280;30517;51.932;4.278;2023-08-31T11:07:48;101119.84;;;18.52;49.73
37298;BME280;30517;51.932;4.278;2023-08-31T11:10:29;101124.63;;;18.41;49.15
37298;BME280;30517;51.932;4.278;2023-08-31T11:13:15;101107.63;;;18.44;49.65
37298;BME280;30517;51.932;4.278;2023-08-31T11:15:57;101087.81;;;18.23;49.81
37298;BME280;30517;51.932;4.278;2023-08-31T11:18:38;101094.59;;;18.33;49.58
37298;BME280;30517;51.932;4.278;2023-08-31T11:21:19;101084.03;;;18.30;50.18
37298;BME280;30517;51.932;4.278;2023-08-31T11:24:00;101014.09;;;17.89;49.81
37298;BME280;30517;51.932;4.278;2023-08-31T11:26:41;101095.00;;;18.49;50.09
37298;BME280;30517;51.932;4.278;2023-08-31T11:29:22;101129.38;;;18.61;50.80
37298;BME280;30517;51.932;4.278;2023-08-31T11:32:03;101117.41;;;18.74;49.50
37298;BME280;30517;51.932;4.278;2023-08-31T11:34:45;101110.91;;;18.83;49.57
37298;BME280;30517;51.932;4.278;2023-08-31T11:37:25;101097.78;;;18.75;50.09
37298;BME280;30517;51.932;4.278;2023-08-31T11:40:08;101111.63;;;18.88;49.58
37298;BME280;30517;51.932;4.278;2023-08-31T11:42:49;101097.56;;;18.82;49.72
37298;BME280;30517;51.932;4.278;2023-08-31T11:45:30;101110.81;;;18.85;49.29
37298;BME280;30517;51.932;4.278;2023-08-31T11:48:12;101112.72;;;19.09;49.32
37298;BME280;30517;51.932;4.278;2023-08-31T11:50:53;101108.13;;;19.13;49.04
37298;BME280;30517;51.932;4.278;2023-08-31T11:53:34;101111.78;;;19.10;49.55
37298;BME280;30517;51.932;4.278;2023-08-31T11:56:15;101088.81;;;19.05;49.35
37298;BME280;30517;51.932;4.278;2023-08-31T11:58:55;101102.69;;;19.16;49.10
37298;BME280;30517;51.932;4.278;2023-08-31T12:01:40;101052.75;;;18.62;49.44
37298;BME280;30517;51.932;4.278;2023-08-31T12:04:22;101108.91;;;19.16;48.64
37298;BME280;30517;51.932;4.278;2023-08-31T12:07:03;101115.13;;;19.17;48.93
37298;BME280;30517;51.932;4.278;2023-08-31T12:09:45;101062.38;;;18.95;49.07
37298;BME280;30517;51.932;4.278;2023-08-31T12:12:26;101107.88;;;19.20;48.95
37298;BME280;30517;51.932;4.278;2023-08-31T12:15:10;101092.00;;;19.41;48.39
37298;BME280;30517;51.932;4.278;2023-08-31T12:17:51;101115.06;;;19.45;48.71
37298;BME280;30517;51.932;4.278;2023-08-31T12:20:34;101113.97;;;19.51;48.69
37298;BME280;30517;51.932;4.278;2023-08-31T12:23:21;101104.09;;;19.53;48.47
37298;BME280;30517;51.932;4.278;2023-08-31T12:26:02;101105.00;;;19.52;48.64
37298;BME280;30517;51.932;4.278;2023-08-31T12:28:43;101080.78;;;19.56;48.40
37298;BME280;30517;51.932;4.278;2023-08-31T12:31:24;101084.47;;;19.27;48.66
37298;BME280;30517;51.932;4.278;2023-08-31T12:34:05;101102.19;;;19.56;48.56
37298;BME280;30517;51.932;4.278;2023-08-31T12:36:47;101029.47;;;19.20;48.70
37298;BME280;30517;51.932;4.278;2023-08-31T12:39:27;101113.31;;;19.94;47.77
37298;BME280;30517;51.932;4.278;2023-08-31T12:42:08;101097.44;;;19.89;48.63
37298;BME280;30517;51.932;4.278;2023-08-31T12:44:49;101114.16;;;19.96;47.98
37298;BME280;30517;51.932;4.278;2023-08-31T12:47:30;101033.34;;;19.60;48.15
37298;BME280;30517;51.932;4.278;2023-08-31T12:50:11;101109.69;;;20.20;47.04
37298;BME280;30517;51.932;4.278;2023-08-31T12:52:51;101123.34;;;20.13;47.26
37298;BME280;30517;51.932;4.278;2023-08-31T12:55:32;101104.66;;;20.11;46.61
37298;BME280;30517;51.932;4.278;2023-08-31T12:58:13;101110.56;;;20.21;47.27
37298;BME280;30517;51.932;4.278;2023-08-31T13:00:54;101121.84;;;20.29;46.92
37298;BME280;30517;51.932;4.278;2023-08-31T13:03:35;101089.16;;;20.43;46.62
37298;BME280;30517;51.932;4.278;2023-08-31T13:06:16;101092.00;;;20.62;46.68
37298;BME280;30517;51.932;4.278;2023-08-31T13:08:56;101117.53;;;20.72;46.13
37298;BME280;30517;51.932;4.278;2023-08-31T13:11:37;101099.31;;;20.58;45.77
37298;BME280;30517;51.932;4.278;2023-08-31T13:14:18;101120.00;;;20.76;45.47
37298;BME280;30517;51.932;4.278;2023-08-31T13:16:59;101118.75;;;21.07;45.79
37298;BME280;30517;51.932;4.278;2023-08-31T13:19:39;101085.56;;;21.10;46.51
37298;BME280;30517;51.932;4.278;2023-08-31T13:22:21;101099.66;;;21.15;45.56
37298;BME280;30517;51.932;4.278;2023-08-31T13:25:01;101118.19;;;21.21;45.02
37298;BME280;30517;51.932;4.278;2023-08-31T13:27:44;101094.75;;;21.25;44.63
37298;BME280;30517;51.932;4.278;2023-08-31T13:30:25;101115.97;;;21.53;44.80
37298;BME280;30517;51.932;4.278;2023-08-31T13:33:06;101116.69;;;21.56;45.52
37298;BME280;30517;51.932;4.278;2023-08-31T13:35:47;101115.34;;;21.67;44.85
37298;BME280;30517;51.932;4.278;2023-08-31T13:38:28;101109.16;;;21.64;43.78
37298;BME280;30517;51.932;4.278;2023-08-31T13:41:09;101034.97;;;21.23;44.26
37298;BME280;30517;51.932;4.278;2023-08-31T13:43:50;101118.75;;;21.70;44.28
37298;BME280;30517;51.932;4.278;2023-08-31T13:46:32;101073.22;;;21.48;44.70
37298;BME280;30517;51.932;4.278;2023-08-31T13:49:12;101119.72;;;22.08;44.52
37298;BME280;30517;51.932;4.278;2023-08-31T13:51:53;101065.56;;;21.59;44.00
37298;BME280;30517;51.932;4.278;2023-08-31T13:54:34;101120.84;;;21.84;44.38
37298;BME280;30517;51.932;4.278;2023-08-31T13:57:15;101116.66;;;21.97;44.39
37298;BME280;30517;51.932;4.278;2023-08-31T13:59:57;101121.06;;;22.19;43.23
37298;BME280;30517;51.932;4.278;2023-08-31T14:02:38;101127.97;;;22.24;43.24
37298;BME280;30517;51.932;4.278;2023-08-31T14:05:19;101113.31;;;22.50;42.98
37298;BME280;30517;51.932;4.278;2023-08-31T14:08:00;101099.00;;;22.50;42.80